Create Custom Reports and Graphics: Custom Report

Alpine-Roundhouse Btm 6950'

Current Conditions

1/15/21 12:30 PM (-08:00)
Updated Every 15 Minutes
Temp 56.1 °F   6.9
RH 20 %   23
Wet Bulb 39.0 °F   0.1
Dew Pt 16.1 °F   12.0
Wind Spd 5.1 mph
Wind Dir SE | 146 °
Wind Gust 13.6 mph   9.3
WindChill 56.1 °F   8.3
Barometric Pressure 30.36 inHg   0.06
Daily Min Temp 40.0 °F   5.2
Daily Max Temp 59.6 °F   8.1
Latest Rain 0.00 In
Daily Rain 0.00 In
New Snow 0.1 in
SnowDepth 35.6 in

Last 6 Hours

Alpine-Roundhouse Btm 6950'

15 Minute Data | America/Los_Angeles
as of 1/15/21 12:39 PM PST
Date & Time Temp (°F) RH (%) Dew Pt (°F) Wet Bulb (°F) Wind Dir (°) Wind Spd (mph) Wind Gust (mph) WindChill (°F) Barometric Pressure (inHg) New Snow (in) SnowDepth (in) Latest Rain (In) Daily Rain (In) Daily Min Temp (°F) Daily Max Temp (°F)
1/15/21 - 1230 56.1 20 16.1 39.0 SE | 146 5.1 13.6 56.1 30.36 0.1 35.6 0.00 0.00 40.0 59.6
1/15/21 - 1215 56.7 18 14.2 38.9 SE | 139 5.2 13.1 56.7 30.36 0.1 35.3 0.00 0.00 40.0 59.6
1/15/21 - 1200 56.4 17 11.9 38.3 SE | 144 4.4 11.0 56.4 30.36 0.1 35.2 0.00 0.00 40.0 59.6
1/15/21 - 1145 57.1 20 16.4 39.6 SSE | 157 4.3 8.5 57.1 30.36 0.0 35.4 0.00 0.00 40.0 59.6
1/15/21 - 1130 57.1 21 17.8 39.9 SSE | 158 4.5 13.1 57.1 30.37 0.1 35.6 0.00 0.00 40.0 59.6
1/15/21 - 1115 57.6 22 18.8 40.4 SE | 146 6.1 13.7 57.6 30.38 0.0 35.2 0.00 0.00 40.0 59.6
1/15/21 - 1100 58.0 21 18.2 40.4 SSE | 158 3.2 7.4 58.0 30.39 0.0 35.1 0.00 0.00 40.0 59.6
1/15/21 - 1045 58.3 17 13.3 39.5 SSE | 165 3.4 6.8 58.3 30.40 0.1 35.2 0.00 0.00 40.0 59.6
1/15/21 - 1030 59.3 15 12.1 39.7 SSE | 160 3.6 9.9 59.3 30.39 0.0 35.0 0.00 0.00 40.0 59.6
1/15/21 - 1015 58.3 13 7.4 38.4 SSE | 162 3.6 7.2 58.3 30.41 0.0 35.1 0.00 0.00 40.0 59.6
1/15/21 - 1000 58.6 12 6.8 38.5 S | 187 1.9 5.3 58.6 30.39 0.0 35.2 0.00 0.00 40.0 58.8
1/15/21 - 0945 50.7 26 17.1 36.6 SSW | 202 0.7 2.9 50.7 30.40 0.0 35.2 0.00 0.00 40.0 50.8
1/15/21 - 0930 49.0 27 16.7 35.7 SSW | 210 0.3 2.7 49.0 30.40 0.0 35.0 0.00 0.00 40.0 49.0
1/15/21 - 0915 47.6 30 17.6 35.2 SSE | 155 0.2 1.8 47.6 30.40 0.0 34.9 0.00 0.00 40.0 47.8
1/15/21 - 0900 44.2 35 18.3 33.6 SSW | 209 0.3 2.6 44.2 30.40 0.0 35.0 0.00 0.00 40.0 44.3
1/15/21 - 0845 41.5 37 17.3 31.9 SSW | 202 0.2 2.4 41.5 30.41 0.1 35.5 0.00 0.00 40.0 42.4
1/15/21 - 0830 41.8 37 17.1 32.0 SSW | 212 0.6 3.4 41.8 30.41 0.2 35.6 0.00 0.00 40.0 42.4
1/15/21 - 0815 41.5 37 17.4 31.9 S | 186 0.1 0.8 41.5 30.40 0.1 35.5 0.00 0.00 40.0 42.4
1/15/21 - 0800 42.0 36 16.9 32.0 SSW | 195 0.5 3.5 42.0 30.40 0.2 35.6 0.00 0.00 40.0 42.4
1/15/21 - 0745 41.2 37 17.0 31.6 SSW | 193 1.1 5.2 41.2 30.41 0.2 35.6 0.00 0.00 40.0 42.4
1/15/21 - 0730 40.0 39 17.0 31.0 SSW | 211 0.1 2.9 40.0 30.41 0.1 35.6 0.00 0.00 40.0 42.4
1/15/21 - 0715 41.0 37 16.5 31.4 SSW | 207 1.9 5.5 41.0 30.41 0.2 35.8 0.00 0.00 40.1 42.4
1/15/21 - 0700 40.8 36 16.2 31.2 SSW | 199 0.2 2.3 40.8 30.41 0.1 35.6 0.00 0.00 40.1 42.4
1/15/21 - 0645 41.9 37 17.6 32.2 SSW | 210 1.3 3.7 41.9 30.41 0.1 35.4 0.00 0.00 40.1 42.4
Max 59.3 39 18.8 40.4 - 6.1 13.7 59.3 30.41 0.2 35.8 0.00 0.00 40.1 59.6
Avg 49.9 27 15.7 35.8 - 2.2 6.2 49.9 30.39 0.1 35.3 0.00 - - -
Min 40.0 12 6.8 31.0 - 0.1 0.8 40.0 30.36 0.0 34.9 0.00 0.00 40.0 42.4
Total - - - - - - - - - - - 0.00 - - -

Last 30 Days

Alpine-Roundhouse Btm 6950'

Daily Data | America/Los_Angeles
as of 1/15/21 12:39 PM PST
Date Daily Max Temp (°F) Time of Max Temp Daily Min Temp (°F) Time of Min Temp Wind Spd (mph) Daily Max Wind (mph) Max Wind Dir (°) Time of Max Wind Daily Rain (In) Seasonal Rainfall (In) SnowDepth (in) Max RH (%) Min RH (%) Wet Bulb (°F) WetB Hrs <28F (hrs) Min Press (inHg) Time of Min Press Bat Volt Min Day (V)
1/14/21 52.9 1328 34.8 0705 1.4 7.4 SSW | 194 1437 0.00 10.14 35.7 81 24 33.6 0.4 30.38 0410 13.0
1/13/21 44.8 1426 35.5 2343 3.0 20.5 SSE | 154 0906 0.06 10.14 35.9 98 48 38.8 0.0 30.29 0510 13.0
1/12/21 44.2 1406 35.5 1945 5.2 24.0 SSE | 168 1518 0.02 10.08 37.5 97 22 31.8 0.0 30.20 0405 13.0
1/11/21 49.9 1414 30.5 0433 2.6 12.1 S | 172 2356 0.00 10.06 38.0 85 19 30.9 4.4 30.18 1340 13.0
1/10/21 41.9 0336 31.4 2137 2.2 12.4 SSW | 193 1449 0.00 10.06 38.2 88 28 31.6 0.2 30.17 0430 13.0
1/9/21 38.5 1444 20.0 0615 1.6 8.1 SSW | 204 1444 0.00 10.06 38.1 96 30 25.3 16.7 30.18 1400 13.1
1/8/21 38.7 0153 23.6 0001 4.2 26.2 SSE | 149 1603 0.09 10.06 38.7 96 21 29.3 8.7 30.11 1310 13.1
1/7/21 45.0 1325 26.4 0733 2.2 10.4 S | 175 1400 0.00 9.97 38.6 68 16 25.4 18.1 30.15 2355 13.1
1/6/21 42.5 0958 29.2 0131 4.2 27.1 E | 88 1418 0.00 9.97 38.7 83 13 27.6 11.5 30.12 1250 13.1
1/5/21 39.0 1243 22.3 0635 2.4 13.4 SSW | 199 0144 0.00 9.97 39.3 86 27 25.7 18.7 30.11 0050 13.0
1/4/21 38.3 0033 27.2 2356 8.0 34.1 SSE | 168 2036 1.24 9.97 39.9 100 53 31.8 4.1 29.88 1530 13.0
1/3/21 38.4 1355 31.3 0613 2.9 22.6 SE | 139 0256 0.07 8.73 37.0 95 57 32.0 0.0 30.11 0110 13.1
1/2/21 36.6 1609 29.8 0532 5.3 23.5 SSE | 158 2137 0.12 8.66 36.9 98 61 32.3 2.3 30.08 0020 13.0
1/1/21 46.3 1344 20.8 0446 2.9 25.0 SSE | 149 2051 0.00 8.54 38.1 98 23 26.8 14.9 30.08 1550 13.0
12/31/20 31.7 1458 23.9 2304 1.9 18.3 SE | 144 0037 0.18 8.54 38.7 98 78 26.5 19.5 29.97 0030 13.1
12/30/20 39.1 1158 23.6 0030 3.5 24.7 ESE | 111 1932 0.07 8.36 37.5 95 12 24.2 23.9 29.96 2310 13.1
12/29/20 26.7 1502 15.5 0617 1.8 5.8 SSW | 210 0649 0.01 8.29 38.1 98 64 21.0 24.0 29.97 0005 13.0
12/28/20 28.9 1406 20.6 2306 1.2 6.9 NNW | 338 0010 0.06 8.28 38.4 100 97 24.5 22.9 29.74 0425 13.0
12/27/20 30.6 1157 22.6 0101 1.8 11.1 SSW | 193 1822 0.00 8.22 38.1 100 98 26.2 17.6 29.77 2350 13.0
12/26/20 31.4 0029 21.8 2017 4.1 27.2 SSE | 157 0216 0.85 8.22 39.4 100 98 27.0 14.7 29.96 0505 13.0
12/25/20 40.2 1224 31.3 2335 6.9 26.7 SE | 146 1224 0.94 7.37 34.1 100 17 30.9 5.5 29.99 2345 13.0
12/24/20 45.0 1210 26.8 0323 2.1 14.2 S | 181 2222 0.00 6.43 29.1 69 15 25.9 18.0 30.14 2220 13.1
12/23/20 39.2 1314 18.1 0333 1.8 13.6 N | 1 1250 0.00 6.43 29.4 90 22 21.7 23.4 30.21 0001 13.1
12/22/20 40.4 1357 22.6 2352 3.3 29.7 ESE | 105 0154 0.03 6.43 29.4 93 20 26.8 13.5 29.93 0245 13.0
12/21/20 51.6 1059 33.2 0545 3.5 26.0 S | 169 2354 0.00 6.40 30.0 44 13 29.9 9.2 29.99 2325 13.1
12/20/20 51.9 1310 34.8 0724 2.4 8.5 SSW | 195 0447 0.00 6.40 30.7 52 14 30.6 3.0 30.24 2355 13.1
12/19/20 48.3 1100 28.2 0003 3.0 12.5 SE | 138 0515 0.00 6.40 31.2 92 18 29.9 6.5 30.28 0145 13.1
12/18/20 32.9 1152 18.6 0655 1.3 6.3 SSW | 210 1535 0.00 6.40 32.1 97 78 24.7 18.1 30.10 0001 13.1
12/17/20 38.3 0005 21.0 2359 2.9 20.1 S | 173 0205 0.72 6.40 32.8 99 36 28.4 7.9 29.84 0525 13.0
12/16/20 44.3 1140 29.1 0527 3.2 22.0 SE | 140 1953 0.00 5.68 27.2 85 34 30.3 8.0 29.96 2350 13.1
Max 52.9 - 35.5 - 8.0 34.1 - - 1.24 - 39.9 100 98 38.8 24.0 30.38 - 13.1
Avg - - - - 3.1 - - - - - 35.6 - - 28.4 - - - -
Min 26.7 - 15.5 - 1.2 5.8 - - 0.00 - 27.2 44 12 21.0 0.0 29.74 - 13.0
Calm: 0.0%
Calm: 0.0%